createdAt,value
2023-03-22T00:00:13.810Z,14.70
2023-03-22T00:01:21.849Z,14.70
2023-03-22T00:02:25.869Z,14.70
2023-03-22T00:03:28.147Z,14.70
2023-03-22T00:04:29.899Z,14.70
2023-03-22T00:05:32.022Z,14.60
2023-03-22T00:06:36.157Z,14.60
2023-03-22T00:07:38.192Z,14.60
2023-03-22T00:08:41.413Z,14.60
2023-03-22T00:09:43.068Z,14.60
2023-03-22T00:10:48.125Z,14.60
2023-03-22T00:11:51.061Z,14.60
2023-03-22T00:12:52.987Z,14.60
2023-03-22T00:13:57.002Z,14.50
2023-03-22T00:15:00.340Z,14.50
2023-03-22T00:16:02.953Z,14.60
2023-03-22T00:17:04.966Z,14.50
2023-03-22T00:18:06.614Z,14.60
2023-03-22T00:19:08.248Z,14.60
2023-03-22T00:20:11.646Z,14.50
2023-03-22T00:21:15.485Z,14.50
2023-03-22T00:22:17.175Z,14.50
2023-03-22T00:23:19.625Z,14.50
2023-03-22T00:24:21.379Z,14.50
2023-03-22T00:25:23.126Z,14.50
2023-03-22T00:26:25.588Z,14.50
2023-03-22T00:27:27.622Z,14.50
2023-03-22T00:28:29.521Z,14.50
2023-03-22T00:29:31.432Z,14.50
2023-03-22T00:30:33.762Z,14.50
2023-03-22T00:31:35.570Z,14.50
2023-03-22T00:32:42.567Z,14.50
2023-03-22T00:33:44.365Z,14.50
2023-03-22T00:34:46.426Z,14.50
2023-03-22T00:35:52.289Z,14.50
2023-03-22T00:36:56.206Z,14.50
2023-03-22T00:37:58.507Z,14.50
2023-03-22T00:39:00.210Z,14.50
2023-03-22T00:40:01.972Z,14.40
2023-03-22T00:41:13.829Z,14.40
2023-03-22T00:42:15.796Z,14.40
2023-03-22T00:43:17.593Z,14.40
2023-03-22T00:44:19.261Z,14.40
2023-03-22T00:45:20.969Z,14.40
2023-03-22T00:46:22.750Z,14.40
2023-03-22T00:47:24.391Z,14.40
2023-03-22T00:48:26.435Z,14.40
2023-03-22T00:49:28.653Z,14.40
2023-03-22T00:50:30.473Z,14.40
2023-03-22T00:51:34.345Z,14.40
2023-03-22T00:52:35.988Z,14.40
2023-03-22T00:53:41.118Z,14.30
2023-03-22T00:54:44.182Z,14.30
2023-03-22T00:55:46.096Z,14.30
2023-03-22T00:56:49.941Z,14.30
2023-03-22T00:57:52.047Z,14.20
2023-03-22T00:58:54.140Z,14.30
2023-03-22T00:59:56.140Z,14.20
2023-03-22T01:00:58.015Z,14.20
2023-03-22T01:01:59.814Z,14.20
2023-03-22T01:03:04.330Z,14.20
2023-03-22T01:04:06.793Z,14.20
2023-03-22T01:05:09.862Z,14.20
2023-03-22T01:06:11.813Z,14.20
2023-03-22T01:07:21.559Z,14.20
2023-03-22T01:08:24.583Z,14.20
2023-03-22T01:09:29.591Z,14.20
2023-03-22T01:10:31.745Z,14.20
2023-03-22T01:11:33.707Z,14.20
2023-03-22T01:12:36.218Z,14.20
2023-03-22T01:13:38.599Z,14.10
2023-03-22T01:14:41.048Z,14.10
2023-03-22T01:15:43.059Z,14.20
2023-03-22T01:16:44.982Z,14.10
2023-03-22T01:17:46.662Z,14.10
2023-03-22T01:18:48.336Z,14.10
2023-03-22T01:19:50.160Z,14.20
2023-03-22T01:20:52.331Z,14.10
2023-03-22T01:21:54.638Z,14.10
2023-03-22T01:22:56.805Z,14.10
2023-03-22T01:23:58.510Z,14.10
2023-03-22T01:25:00.306Z,14.10
2023-03-22T01:26:02.256Z,14.10
2023-03-22T01:27:03.994Z,14.10
2023-03-22T01:28:06.884Z,14.10
2023-03-22T01:29:09.139Z,14.10
2023-03-22T01:30:12.487Z,14.10
2023-03-22T01:31:15.602Z,14.10
2023-03-22T01:32:17.357Z,14.10
2023-03-22T01:33:19.184Z,14.00
2023-03-22T01:34:21.178Z,14.10
2023-03-22T01:35:23.420Z,14.00
2023-03-22T01:36:25.260Z,14.00
2023-03-22T01:37:28.757Z,14.00
2023-03-22T01:38:30.714Z,14.00
2023-03-22T01:39:32.433Z,14.00
2023-03-22T01:40:34.604Z,14.00
2023-03-22T01:41:37.711Z,14.00
2023-03-22T01:42:39.380Z,14.00
2023-03-22T01:43:41.025Z,14.00
2023-03-22T01:45:14.776Z,13.90
2023-03-22T01:46:16.821Z,13.90
2023-03-22T01:47:18.716Z,13.90
2023-03-22T01:48:28.809Z,13.90
2023-03-22T01:49:34.581Z,13.90
2023-03-22T01:50:39.265Z,13.80
2023-03-22T01:51:43.745Z,13.80
2023-03-22T01:52:45.602Z,13.80
2023-03-22T01:53:52.096Z,13.80
2023-03-22T01:54:57.086Z,13.80
2023-03-22T01:55:59.313Z,13.80
2023-03-22T01:57:02.535Z,13.80
2023-03-22T01:58:05.172Z,13.80
2023-03-22T01:59:08.895Z,13.70
2023-03-22T02:00:15.460Z,13.70
2023-03-22T02:01:18.208Z,13.70
2023-03-22T02:02:20.508Z,13.70
2023-03-22T02:03:36.869Z,13.70
2023-03-22T02:04:39.349Z,13.70
2023-03-22T02:05:41.496Z,13.60
2023-03-22T02:06:44.565Z,13.60
2023-03-22T02:07:46.399Z,13.60
2023-03-22T02:08:50.044Z,13.60
2023-03-22T02:09:52.956Z,13.60
2023-03-22T02:10:54.765Z,13.60
2023-03-22T02:12:15.075Z,13.60
2023-03-22T02:13:47.968Z,13.60
2023-03-22T02:15:05.294Z,13.60
2023-03-22T02:16:22.554Z,13.60
2023-03-22T02:17:42.627Z,13.50
2023-03-22T02:18:58.835Z,13.50
2023-03-22T02:20:11.462Z,13.50
2023-03-22T02:21:28.828Z,13.50
2023-03-22T02:22:40.616Z,13.40
2023-03-22T02:24:06.770Z,13.40
2023-03-22T02:25:32.252Z,13.40
2023-03-22T02:27:05.033Z,13.40
2023-03-22T02:28:29.102Z,13.40
2023-03-22T02:29:55.098Z,13.30
2023-03-22T02:31:00.160Z,13.20
2023-03-22T02:32:20.040Z,13.20
2023-03-22T02:33:46.753Z,13.20
2023-03-22T02:34:54.055Z,13.20
2023-03-22T02:36:03.922Z,13.20
2023-03-22T02:37:36.355Z,13.10
2023-03-22T02:39:06.901Z,13.10
2023-03-22T02:40:17.470Z,13.10
2023-03-22T02:41:45.803Z,13.10
2023-03-22T02:43:01.194Z,13.10
2023-03-22T02:44:38.429Z,13.10
2023-03-22T02:45:45.917Z,13.10
2023-03-22T02:47:13.685Z,13.10
2023-03-22T02:48:29.857Z,13.10
2023-03-22T02:49:41.425Z,13.00
2023-03-22T02:50:54.630Z,13.00
2023-03-22T02:52:12.657Z,13.00
2023-03-22T02:53:40.943Z,13.00
2023-03-22T02:54:49.105Z,13.00
2023-03-22T02:55:59.535Z,12.90
2023-03-22T02:57:07.732Z,12.90
2023-03-22T02:58:28.622Z,13.00
2023-03-22T02:59:33.009Z,13.00
2023-03-22T03:00:39.568Z,12.90
2023-03-22T03:01:47.509Z,12.90
2023-03-22T03:02:53.599Z,12.90
2023-03-22T03:04:02.429Z,12.90
2023-03-22T03:05:05.088Z,12.90
2023-03-22T03:06:16.565Z,12.90
2023-03-22T03:07:22.347Z,12.90
2023-03-22T03:08:26.343Z,12.90
2023-03-22T03:09:29.420Z,12.90
2023-03-22T03:10:32.543Z,12.90
2023-03-22T03:11:34.194Z,12.90
2023-03-22T03:12:35.889Z,12.90
2023-03-22T03:13:38.186Z,12.90
2023-03-22T03:14:40.553Z,12.90
2023-03-22T03:15:46.229Z,12.90
2023-03-22T03:16:53.904Z,12.90
2023-03-22T03:18:17.012Z,12.90
2023-03-22T03:19:29.820Z,13.00
2023-03-22T03:20:57.397Z,13.00
2023-03-22T03:22:22.534Z,13.00
2023-03-22T03:23:31.488Z,13.00
2023-03-22T03:24:58.889Z,12.90
2023-03-22T03:26:26.876Z,12.90
2023-03-22T03:27:58.201Z,12.90
2023-03-22T03:29:11.813Z,12.90
2023-03-22T03:30:25.157Z,12.90
2023-03-22T03:31:44.933Z,12.80
2023-03-22T03:32:59.279Z,12.80
2023-03-22T03:34:10.052Z,12.80
2023-03-22T03:35:22.906Z,12.80
2023-03-22T03:36:26.322Z,12.70
2023-03-22T03:37:34.682Z,12.70
2023-03-22T03:38:39.030Z,12.80
2023-03-22T03:39:47.081Z,12.70
2023-03-22T03:40:53.001Z,12.70
2023-03-22T03:41:56.298Z,12.70
2023-03-22T03:43:02.686Z,12.70
2023-03-22T03:44:05.177Z,12.70
2023-03-22T03:45:08.580Z,12.70
2023-03-22T03:46:10.823Z,12.70
2023-03-22T03:47:14.134Z,12.70
2023-03-22T03:48:19.909Z,12.60
2023-03-22T03:49:23.054Z,12.70
2023-03-22T03:50:25.943Z,12.60
2023-03-22T03:51:28.139Z,12.70
2023-03-22T03:52:30.083Z,12.70
2023-03-22T03:53:32.454Z,12.60
2023-03-22T03:54:34.189Z,12.60
2023-03-22T03:55:36.490Z,12.50
2023-03-22T03:56:38.187Z,12.60
2023-03-22T03:57:39.920Z,12.50
2023-03-22T03:58:41.881Z,12.50
2023-03-22T03:59:43.917Z,12.50
2023-03-22T04:00:47.171Z,12.50
2023-03-22T04:01:53.102Z,12.50
2023-03-22T04:02:54.925Z,12.50
2023-03-22T04:03:57.932Z,12.40
2023-03-22T04:04:59.718Z,12.40
2023-03-22T04:06:01.730Z,12.40
2023-03-22T04:07:05.788Z,12.40
2023-03-22T04:08:07.848Z,12.40
2023-03-22T04:09:10.155Z,12.40
2023-03-22T04:10:12.110Z,12.40
2023-03-22T04:11:13.883Z,12.30
2023-03-22T04:12:15.740Z,12.40
2023-03-22T04:13:21.449Z,12.40
2023-03-22T04:14:24.143Z,12.40
2023-03-22T04:15:26.148Z,12.40
2023-03-22T04:16:27.960Z,12.30
2023-03-22T04:17:29.671Z,12.40
2023-03-22T04:18:32.374Z,12.40
2023-03-22T04:19:34.152Z,12.40
2023-03-22T04:20:36.500Z,12.40
2023-03-22T04:21:38.581Z,12.30
2023-03-22T04:22:41.779Z,12.30
2023-03-22T04:23:46.932Z,12.30
2023-03-22T04:24:50.400Z,12.30
2023-03-22T04:25:52.440Z,12.30
2023-03-22T04:26:54.724Z,12.20
2023-03-22T04:27:56.761Z,12.20
2023-03-22T04:28:58.603Z,12.20
2023-03-22T04:30:01.047Z,12.20
2023-03-22T04:31:03.655Z,12.20
2023-03-22T04:32:05.644Z,12.20
2023-03-22T04:33:10.034Z,12.30
2023-03-22T04:34:12.186Z,12.20
2023-03-22T04:35:14.312Z,12.20
2023-03-22T04:36:17.378Z,12.30
2023-03-22T04:37:22.709Z,12.20
2023-03-22T04:38:25.353Z,12.20
2023-03-22T04:39:27.850Z,12.20
2023-03-22T04:40:35.313Z,12.20
2023-03-22T04:41:37.714Z,12.20
2023-03-22T04:42:39.692Z,12.20
2023-03-22T04:43:41.562Z,12.20
2023-03-22T04:44:43.348Z,12.20
2023-03-22T04:45:46.370Z,12.10
2023-03-22T04:46:48.280Z,12.20
2023-03-22T04:47:50.451Z,12.20
2023-03-22T04:48:52.264Z,12.20
2023-03-22T04:49:54.243Z,12.20
2023-03-22T04:50:57.296Z,12.20
2023-03-22T04:51:59.145Z,12.10
2023-03-22T04:53:00.866Z,12.10
2023-03-22T04:54:02.888Z,12.20
2023-03-22T04:55:05.131Z,12.10
2023-03-22T04:56:09.856Z,12.20
2023-03-22T04:57:11.544Z,12.10
2023-03-22T04:58:13.235Z,12.20
2023-03-22T04:59:18.034Z,12.10
2023-03-22T05:00:21.846Z,12.10
2023-03-22T05:01:23.625Z,12.10
2023-03-22T05:02:25.736Z,12.10
2023-03-22T05:03:27.598Z,12.10
2023-03-22T05:04:31.485Z,12.10
2023-03-22T05:05:33.351Z,12.10
2023-03-22T05:06:35.194Z,12.10
2023-03-22T05:07:36.956Z,12.10
2023-03-22T05:08:38.675Z,12.10
2023-03-22T05:09:40.786Z,12.10
2023-03-22T05:10:42.696Z,12.10
2023-03-22T05:11:44.466Z,12.10
2023-03-22T05:12:46.442Z,12.10
2023-03-22T05:13:48.235Z,12.20
2023-03-22T05:14:50.159Z,12.20
2023-03-22T05:15:52.765Z,12.10
2023-03-22T05:16:54.474Z,12.20
2023-03-22T05:17:56.305Z,12.20
2023-03-22T05:18:58.355Z,12.10
2023-03-22T05:20:07.291Z,12.20
2023-03-22T05:21:16.069Z,12.20
2023-03-22T05:22:19.420Z,12.10
2023-03-22T05:23:22.507Z,12.20
2023-03-22T05:24:24.389Z,12.20
2023-03-22T05:25:26.242Z,12.10
2023-03-22T05:26:28.077Z,12.20
2023-03-22T05:27:34.782Z,12.10
2023-03-22T05:28:37.658Z,12.10
2023-03-22T05:29:44.856Z,12.10
2023-03-22T05:30:47.112Z,12.10
2023-03-22T05:31:49.366Z,12.10
2023-03-22T05:32:51.236Z,12.10
2023-03-22T05:33:55.009Z,12.10
2023-03-22T05:34:57.046Z,12.10
2023-03-22T05:35:59.140Z,12.10
2023-03-22T05:37:01.357Z,12.10
2023-03-22T05:38:04.005Z,12.10
2023-03-22T05:39:05.814Z,12.10
2023-03-22T05:40:10.894Z,12.10
2023-03-22T05:41:14.182Z,12.10
2023-03-22T05:42:15.876Z,12.20
2023-03-22T05:43:17.978Z,12.20
2023-03-22T05:44:19.883Z,12.20
2023-03-22T05:45:22.330Z,12.20
2023-03-22T05:46:24.645Z,12.30
2023-03-22T05:47:26.778Z,12.30
2023-03-22T05:48:28.444Z,12.30
2023-03-22T05:49:31.162Z,12.30
2023-03-22T05:50:33.454Z,12.30
2023-03-22T05:51:42.121Z,12.40
2023-03-22T05:52:45.582Z,12.30
2023-03-22T05:53:48.063Z,12.30
2023-03-22T05:57:35.609Z,12.30
2023-03-22T05:58:37.725Z,12.30
2023-03-22T05:59:39.709Z,12.20
2023-03-22T06:00:41.848Z,12.20
2023-03-22T06:01:43.673Z,12.10
2023-03-22T06:02:47.977Z,12.10
2023-03-22T06:03:49.690Z,12.10
2023-03-22T06:04:53.158Z,12.10
2023-03-22T06:05:54.965Z,12.10
2023-03-22T06:06:56.641Z,12.10
2023-03-22T06:07:58.956Z,12.10
2023-03-22T06:09:10.711Z,12.10
2023-03-22T06:10:18.229Z,12.00
2023-03-22T06:11:19.894Z,12.00
2023-03-22T06:12:24.652Z,12.00
2023-03-22T06:13:26.718Z,12.00
2023-03-22T06:14:28.741Z,12.00
2023-03-22T06:15:30.443Z,12.00
2023-03-22T06:16:33.655Z,12.00
2023-03-22T06:17:35.644Z,12.00
2023-03-22T06:18:38.022Z,11.90
2023-03-22T06:19:39.726Z,11.90
2023-03-22T06:20:42.307Z,12.00
2023-03-22T06:21:44.490Z,12.00
2023-03-22T06:22:46.448Z,12.00
2023-03-22T06:23:48.109Z,12.00
2023-03-22T06:24:50.149Z,12.00
2023-03-22T06:25:53.543Z,12.10
2023-03-22T06:26:55.561Z,12.10
2023-03-22T06:27:57.300Z,12.10
2023-03-22T06:28:59.043Z,12.10
2023-03-22T06:30:01.125Z,12.40
2023-03-22T06:31:08.201Z,12.20
2023-03-22T06:32:11.774Z,12.20
2023-03-22T06:33:15.704Z,12.20
2023-03-22T06:34:17.425Z,12.20
2023-03-22T06:35:19.087Z,12.30
2023-03-22T06:36:21.273Z,12.30
2023-03-22T06:37:24.491Z,12.30
2023-03-22T06:38:26.355Z,12.30
2023-03-22T06:39:28.609Z,12.30
2023-03-22T06:40:30.316Z,12.30
2023-03-22T06:41:32.416Z,12.40
2023-03-22T06:42:36.543Z,12.30
2023-03-22T06:43:38.359Z,12.30
2023-03-22T06:44:43.859Z,12.40
2023-03-22T06:45:49.129Z,12.40
2023-03-22T06:46:51.292Z,12.40
2023-03-22T06:47:52.989Z,12.40
2023-03-22T06:48:54.820Z,12.40
2023-03-22T06:49:56.542Z,12.50
2023-03-22T06:50:59.771Z,12.50
2023-03-22T06:52:01.629Z,12.50
2023-03-22T06:53:04.498Z,12.50
2023-03-22T06:54:06.138Z,12.50
2023-03-22T06:55:08.325Z,12.50
2023-03-22T06:56:10.151Z,12.50
2023-03-22T06:57:13.034Z,12.60
2023-03-22T06:58:14.731Z,12.60
2023-03-22T06:59:16.419Z,12.60
2023-03-22T07:00:18.717Z,12.70
2023-03-22T07:01:21.690Z,12.70
2023-03-22T07:02:23.347Z,12.80
2023-03-22T07:03:25.075Z,12.80
2023-03-22T07:04:28.394Z,12.80
2023-03-22T07:05:30.507Z,12.80
2023-03-22T07:06:32.782Z,12.90
2023-03-22T07:07:34.384Z,12.90
2023-03-22T07:08:39.097Z,12.90
2023-03-22T07:09:41.125Z,12.90
2023-03-22T07:10:43.731Z,12.90
2023-03-22T07:11:45.454Z,13.00
2023-03-22T07:12:47.122Z,13.00
2023-03-22T07:13:49.034Z,13.00
2023-03-22T07:14:50.813Z,13.00
2023-03-22T07:16:00.642Z,13.00
2023-03-22T07:17:02.372Z,13.00
2023-03-22T07:18:07.866Z,13.00
2023-03-22T07:19:09.936Z,13.00
2023-03-22T07:20:11.696Z,13.00
2023-03-22T07:21:13.298Z,13.10
2023-03-22T07:22:15.480Z,13.10
2023-03-22T07:23:17.881Z,13.10
2023-03-22T07:24:19.766Z,13.10
2023-03-22T07:25:21.645Z,13.10
2023-03-22T07:26:23.662Z,13.20
2023-03-22T07:27:25.900Z,13.10
2023-03-22T07:28:27.939Z,13.20
2023-03-22T07:29:29.924Z,13.20
2023-03-22T07:30:31.568Z,13.20
2023-03-22T07:31:36.524Z,13.30
2023-03-22T07:32:41.656Z,13.30
2023-03-22T07:33:43.683Z,13.30
2023-03-22T07:34:45.610Z,13.30
2023-03-22T07:35:49.050Z,13.40
2023-03-22T07:36:51.076Z,13.40
2023-03-22T07:37:53.252Z,13.50
2023-03-22T07:38:56.335Z,13.50
2023-03-22T07:39:58.204Z,13.50
2023-03-22T07:41:00.663Z,13.60
2023-03-22T07:42:02.751Z,13.60
2023-03-22T07:43:04.504Z,13.70
2023-03-22T07:44:17.375Z,13.70
2023-03-22T07:45:20.896Z,13.80
2023-03-22T07:46:22.819Z,13.80
2023-03-22T07:47:39.918Z,13.90
2023-03-22T07:48:42.367Z,13.90
2023-03-22T07:49:44.120Z,14.00
2023-03-22T07:50:45.915Z,14.00
2023-03-22T07:51:47.590Z,14.10
2023-03-22T07:52:49.276Z,14.10
2023-03-22T07:53:50.942Z,14.10
2023-03-22T07:54:52.649Z,14.20
2023-03-22T07:55:54.516Z,14.30
2023-03-22T07:56:56.322Z,14.30
2023-03-22T07:57:57.992Z,14.40
2023-03-22T07:58:59.780Z,14.40
2023-03-22T08:00:01.650Z,14.50
2023-03-22T08:01:12.881Z,14.50
2023-03-22T08:02:14.598Z,14.50
2023-03-22T08:03:16.403Z,14.50
2023-03-22T08:04:19.478Z,14.60
2023-03-22T08:05:22.883Z,14.60
2023-03-22T08:06:24.502Z,14.60
2023-03-22T08:07:26.279Z,14.60
2023-03-22T08:08:27.907Z,14.60
2023-03-22T08:09:29.638Z,14.70
2023-03-22T08:10:32.840Z,14.70
2023-03-22T08:11:35.396Z,14.70
2023-03-22T08:12:37.115Z,14.70
2023-03-22T08:13:39.879Z,14.70
2023-03-22T08:14:41.903Z,14.80
2023-03-22T08:15:43.590Z,14.80
2023-03-22T08:16:45.716Z,14.80
2023-03-22T08:17:50.113Z,14.90
2023-03-22T08:18:51.861Z,14.90
2023-03-22T08:19:56.837Z,14.90
2023-03-22T08:21:00.043Z,14.90
2023-03-22T08:22:02.105Z,14.90
2023-03-22T08:23:03.885Z,14.90
2023-03-22T08:24:06.265Z,15.00
2023-03-22T08:25:08.632Z,15.00
2023-03-22T08:26:11.057Z,15.00
2023-03-22T08:27:14.140Z,15.00
2023-03-22T08:28:16.147Z,15.00
2023-03-22T08:29:18.686Z,15.00
2023-03-22T08:30:22.027Z,15.00
2023-03-22T08:31:23.943Z,15.10
2023-03-22T08:32:27.837Z,15.00
2023-03-22T08:33:29.533Z,15.10
2023-03-22T08:34:33.171Z,15.10
2023-03-22T08:35:35.096Z,15.20
2023-03-22T08:36:38.005Z,15.20
2023-03-22T08:37:40.285Z,15.20
2023-03-22T08:38:45.411Z,15.20
2023-03-22T08:39:47.552Z,15.30
2023-03-22T08:40:49.299Z,15.30
2023-03-22T08:41:50.952Z,15.30
2023-03-22T08:42:52.672Z,15.30
2023-03-22T08:43:54.401Z,15.40
2023-03-22T08:44:56.571Z,15.40
2023-03-22T08:45:58.790Z,15.40
2023-03-22T08:47:02.271Z,15.40
2023-03-22T08:48:05.007Z,15.50
2023-03-22T08:49:06.862Z,15.50
2023-03-22T08:50:10.653Z,15.60
2023-03-22T08:51:12.527Z,15.60
2023-03-22T08:52:14.244Z,15.70
2023-03-22T08:53:16.302Z,15.70
2023-03-22T08:54:18.227Z,15.70
2023-03-22T08:55:21.078Z,15.70
2023-03-22T08:56:24.794Z,15.80
2023-03-22T08:57:27.636Z,15.80
2023-03-22T08:58:29.698Z,15.80
2023-03-22T08:59:31.409Z,15.90
2023-03-22T09:00:47.417Z,15.90
2023-03-22T09:01:50.277Z,15.90
2023-03-22T09:02:52.183Z,16.00
2023-03-22T09:03:53.927Z,16.00
2023-03-22T09:04:55.793Z,16.00
2023-03-22T09:05:57.748Z,16.10
2023-03-22T09:06:59.402Z,16.10
2023-03-22T09:08:06.593Z,16.10
2023-03-22T09:09:08.696Z,16.10
2023-03-22T09:10:11.240Z,16.20
2023-03-22T09:11:13.404Z,16.20
2023-03-22T09:12:15.701Z,16.30
2023-03-22T09:13:18.189Z,16.30
2023-03-22T09:14:19.999Z,16.30
2023-03-22T09:15:21.693Z,16.30
2023-03-22T09:16:23.524Z,16.30
2023-03-22T09:17:25.596Z,16.30
2023-03-22T09:18:27.663Z,16.40
2023-03-22T09:19:29.591Z,16.40
2023-03-22T09:20:31.288Z,16.40
2023-03-22T09:21:34.071Z,16.40
2023-03-22T09:22:36.215Z,16.40
2023-03-22T09:23:39.290Z,16.50
2023-03-22T09:24:41.435Z,16.50
2023-03-22T09:25:44.380Z,16.50
2023-03-22T09:26:47.809Z,16.50
2023-03-22T09:27:50.009Z,16.60
2023-03-22T09:28:51.890Z,16.60
2023-03-22T09:29:53.571Z,16.60
2023-03-22T09:30:55.414Z,16.60
2023-03-22T09:31:57.211Z,16.60
2023-03-22T09:32:58.875Z,16.60
2023-03-22T09:34:00.936Z,16.60
2023-03-22T09:35:02.706Z,16.60
2023-03-22T09:36:04.809Z,16.60
2023-03-22T09:37:07.036Z,16.60
2023-03-22T09:38:09.139Z,16.70
2023-03-22T09:39:11.268Z,16.60
2023-03-22T09:40:13.355Z,16.60
2023-03-22T09:41:24.976Z,16.70
2023-03-22T09:42:35.245Z,16.70
2023-03-22T09:43:51.370Z,16.70
2023-03-22T09:44:54.563Z,16.70
2023-03-22T09:45:56.423Z,16.80
2023-03-22T09:47:00.553Z,16.80
2023-03-22T09:48:05.493Z,16.80
2023-03-22T09:49:13.838Z,16.80
2023-03-22T09:50:22.414Z,16.80
2023-03-22T09:51:38.105Z,16.80
2023-03-22T09:52:41.103Z,16.80
2023-03-22T09:53:42.842Z,16.80
2023-03-22T09:54:46.850Z,16.80
2023-03-22T09:56:15.361Z,16.80
2023-03-22T09:57:37.471Z,16.80
2023-03-22T09:59:07.050Z,16.90
2023-03-22T10:00:14.484Z,16.90
2023-03-22T10:01:44.083Z,16.90
2023-03-22T10:02:45.880Z,17.00
2023-03-22T10:04:09.747Z,17.00
2023-03-22T10:05:18.853Z,17.00
2023-03-22T10:06:29.402Z,17.00
2023-03-22T10:08:11.226Z,17.10
2023-03-22T10:09:31.139Z,17.10
2023-03-22T10:10:33.358Z,17.10
2023-03-22T10:12:05.030Z,17.20
2023-03-22T10:13:28.595Z,17.30
2023-03-22T10:14:36.398Z,17.30
2023-03-22T10:15:43.224Z,17.40
2023-03-22T10:16:45.848Z,17.30
2023-03-22T10:17:52.582Z,17.30
2023-03-22T10:19:04.368Z,17.30
2023-03-22T10:20:14.728Z,17.30
2023-03-22T10:21:18.154Z,17.30
2023-03-22T10:22:25.125Z,17.30
2023-03-22T10:23:35.791Z,17.30
2023-03-22T10:24:40.473Z,17.30
2023-03-22T10:25:43.694Z,17.30
2023-03-22T10:26:48.147Z,17.30
2023-03-22T10:27:51.507Z,17.30
2023-03-22T10:29:05.284Z,17.30
2023-03-22T10:30:13.299Z,17.30
2023-03-22T10:31:21.197Z,17.30
2023-03-22T10:32:31.877Z,17.30
2023-03-22T10:33:50.346Z,17.30
2023-03-22T10:34:52.581Z,17.40
2023-03-22T10:35:55.148Z,17.40
2023-03-22T10:37:01.160Z,17.40
2023-03-22T10:38:07.245Z,17.50
2023-03-22T10:39:33.475Z,17.60
2023-03-22T10:40:37.468Z,17.50
2023-03-22T10:41:39.815Z,17.60
2023-03-22T10:42:52.527Z,17.60
2023-03-22T10:44:00.262Z,17.60
2023-03-22T10:45:08.819Z,17.60
2023-03-22T10:46:19.315Z,17.60
2023-03-22T10:47:32.630Z,17.60
2023-03-22T10:48:39.481Z,17.70
2023-03-22T10:49:48.260Z,17.70
2023-03-22T10:50:50.226Z,17.80
2023-03-22T10:51:55.328Z,17.80
2023-03-22T10:53:27.607Z,17.90
2023-03-22T10:54:30.307Z,18.00
2023-03-22T10:55:32.003Z,18.00
2023-03-22T10:56:33.771Z,18.00
2023-03-22T10:57:35.498Z,18.10
2023-03-22T10:58:37.173Z,18.10
2023-03-22T10:59:55.382Z,18.20
2023-03-22T11:01:09.642Z,18.30
2023-03-22T11:02:30.539Z,18.30
2023-03-22T11:03:43.024Z,18.40
2023-03-22T11:04:53.358Z,18.40
2023-03-22T11:06:07.064Z,18.50
2023-03-22T11:07:26.188Z,18.50
2023-03-22T11:08:27.928Z,18.50
2023-03-22T11:09:29.624Z,18.50
2023-03-22T11:10:33.426Z,18.50
2023-03-22T11:11:38.449Z,18.50
2023-03-22T11:12:46.900Z,18.50
2023-03-22T11:14:26.073Z,18.60
2023-03-22T11:15:33.940Z,18.70
2023-03-22T11:16:48.225Z,18.70
2023-03-22T11:17:50.648Z,18.70
2023-03-22T11:18:52.703Z,18.70
2023-03-22T11:19:58.726Z,18.80
2023-03-22T11:21:08.016Z,18.80
2023-03-22T11:22:46.403Z,18.80
2023-03-22T11:24:07.594Z,18.90
2023-03-22T11:25:25.968Z,19.00
2023-03-22T11:26:39.192Z,19.00
2023-03-22T11:28:05.698Z,19.00
2023-03-22T11:29:13.947Z,19.00
2023-03-22T11:30:26.418Z,19.00
2023-03-22T11:31:47.536Z,19.10
2023-03-22T11:32:49.729Z,19.10
2023-03-22T11:34:01.574Z,19.20
2023-03-22T11:35:21.300Z,19.20
2023-03-22T11:36:23.411Z,19.30
2023-03-22T11:37:26.465Z,19.30
2023-03-22T11:38:40.512Z,19.30
2023-03-22T11:39:49.524Z,19.20
2023-03-22T11:40:59.111Z,19.20
2023-03-22T11:42:06.272Z,19.30
2023-03-22T11:43:19.333Z,19.30
2023-03-22T11:44:22.876Z,19.40
2023-03-22T11:45:34.265Z,19.50
2023-03-22T11:46:37.681Z,19.50
2023-03-22T11:47:40.452Z,19.50
2023-03-22T11:48:42.842Z,19.60
2023-03-22T11:49:50.243Z,19.60
2023-03-22T11:50:59.533Z,19.60
2023-03-22T11:52:10.130Z,19.60
2023-03-22T11:53:16.925Z,19.70
2023-03-22T11:54:34.385Z,19.80
2023-03-22T11:55:36.973Z,19.80
2023-03-22T11:56:45.568Z,20.10
2023-03-22T11:57:47.908Z,20.00
2023-03-22T11:59:15.735Z,20.10
2023-03-22T12:00:24.732Z,19.80
2023-03-22T12:01:44.699Z,20.00
2023-03-22T12:02:56.236Z,20.00
2023-03-22T12:03:59.143Z,20.00
2023-03-22T12:05:09.409Z,20.00
2023-03-22T12:06:25.280Z,20.10
2023-03-22T12:07:31.331Z,20.10
2023-03-22T12:09:05.966Z,20.10
2023-03-22T12:10:17.079Z,20.10
2023-03-22T12:11:38.135Z,20.10
2023-03-22T12:12:46.435Z,20.10
2023-03-22T12:13:51.205Z,20.20
2023-03-22T12:15:22.370Z,20.20
2023-03-22T12:16:33.096Z,20.20
2023-03-22T12:17:40.912Z,20.20
2023-03-22T12:18:50.870Z,20.20
2023-03-22T12:20:07.751Z,20.30
2023-03-22T12:21:12.253Z,20.30
2023-03-22T12:22:17.279Z,20.40
2023-03-22T12:23:22.285Z,20.40
2023-03-22T12:24:30.269Z,20.40
2023-03-22T12:25:35.845Z,20.50
2023-03-22T12:26:39.126Z,20.60
2023-03-22T12:27:43.779Z,20.60
2023-03-22T12:28:58.159Z,20.70
2023-03-22T12:30:12.221Z,20.70
2023-03-22T12:31:20.016Z,20.70
2023-03-22T12:32:29.955Z,20.70
2023-03-22T12:33:41.723Z,20.70
2023-03-22T12:34:48.200Z,20.80
2023-03-22T12:35:56.900Z,20.80
2023-03-22T12:37:01.505Z,20.80
2023-03-22T12:38:30.494Z,20.80
2023-03-22T12:39:40.243Z,20.80
2023-03-22T12:40:47.734Z,20.80
2023-03-22T12:41:52.960Z,20.80
2023-03-22T12:43:32.616Z,20.90
2023-03-22T12:44:39.408Z,20.90
2023-03-22T12:45:46.057Z,20.90
2023-03-22T12:47:01.107Z,21.00
2023-03-22T12:48:16.026Z,21.00
2023-03-22T12:49:33.937Z,21.00
2023-03-22T12:51:08.472Z,21.00
2023-03-22T12:52:21.726Z,20.90
2023-03-22T12:53:29.819Z,20.90
2023-03-22T12:54:31.744Z,20.90
2023-03-22T12:55:37.768Z,20.90
2023-03-22T12:56:43.334Z,21.00
2023-03-22T12:57:51.201Z,21.00
2023-03-22T12:58:58.319Z,21.00
2023-03-22T13:00:10.444Z,21.00
2023-03-22T13:01:52.208Z,21.00
2023-03-22T13:03:18.756Z,21.00
2023-03-22T13:04:35.036Z,21.00
2023-03-22T13:05:37.340Z,21.10
2023-03-22T13:06:45.416Z,21.10
2023-03-22T13:07:47.479Z,21.20
2023-03-22T13:09:18.609Z,21.20
2023-03-22T13:10:32.957Z,21.20
2023-03-22T13:11:35.552Z,21.20
2023-03-22T13:12:37.251Z,21.20
2023-03-22T13:13:44.444Z,21.20
2023-03-22T13:14:51.942Z,21.30
2023-03-22T13:16:16.326Z,21.30
2023-03-22T13:17:23.580Z,21.40
2023-03-22T13:18:42.995Z,21.50
2023-03-22T13:19:55.115Z,21.60
2023-03-22T13:21:20.222Z,21.70
2023-03-22T13:22:29.832Z,21.80
2023-03-22T13:23:32.655Z,21.90
2023-03-22T13:24:34.819Z,21.80
2023-03-22T13:25:38.797Z,21.80
2023-03-22T13:26:49.091Z,21.80
2023-03-22T13:28:09.864Z,21.80
2023-03-22T13:29:21.974Z,21.80
2023-03-22T13:30:25.990Z,21.80
2023-03-22T13:31:59.951Z,21.80
2023-03-22T13:33:11.300Z,21.80
2023-03-22T13:34:23.408Z,21.80
2023-03-22T13:35:28.621Z,21.70
2023-03-22T13:36:32.058Z,21.70
2023-03-22T13:37:42.103Z,21.70
2023-03-22T13:38:53.301Z,21.80
2023-03-22T13:39:56.379Z,21.80
2023-03-22T13:41:08.185Z,21.90
2023-03-22T13:42:19.743Z,21.90
2023-03-22T13:43:27.127Z,21.80
2023-03-22T13:44:35.660Z,21.70
2023-03-22T13:45:38.100Z,21.70
2023-03-22T13:46:44.271Z,21.60
2023-03-22T13:47:46.937Z,21.60
2023-03-22T13:48:49.247Z,21.60
2023-03-22T13:49:58.460Z,21.60
2023-03-22T13:51:33.458Z,21.50
2023-03-22T13:52:42.229Z,21.50
2023-03-22T13:53:56.946Z,21.40
2023-03-22T13:54:59.738Z,21.30
2023-03-22T13:56:05.961Z,21.40
2023-03-22T13:57:20.297Z,21.30
2023-03-22T13:58:46.580Z,21.30
2023-03-22T14:00:10.321Z,21.30
2023-03-22T14:01:36.864Z,21.30
2023-03-22T14:02:42.181Z,21.40
2023-03-22T14:03:47.534Z,21.40
2023-03-22T14:05:02.009Z,21.50
2023-03-22T14:06:18.896Z,21.50
2023-03-22T14:07:28.804Z,21.70
2023-03-22T14:08:32.841Z,21.90
2023-03-22T14:10:00.325Z,22.00
2023-03-22T14:11:20.839Z,22.30
2023-03-22T14:12:57.278Z,22.60
2023-03-22T14:14:07.562Z,22.70
2023-03-22T14:15:14.569Z,22.90
2023-03-22T14:16:21.845Z,23.00
2023-03-22T14:17:45.260Z,23.20
2023-03-22T14:18:49.656Z,23.30
2023-03-22T14:19:52.363Z,23.40